Pagrindinis puslapis
METAR-TAF:

METAR-TAF

Oro uostai :

Šo de Fonas, Šveicarija

platuma: 47-05-03N, ilguma: 006-47-37E, Aukštis: 1027 m

Dabartinis oras

Ataskaita buvo paskelbta 21 minutes, ne 23:50 UTC
Vėjas 2 kt iš Šiaurės Rytų
Temperatūra 6°C
Drėgmė 70%
Slėgis 1016 hPa
Matomumas 10 km arba daugiau
Su prošvaistėmis ne aukštis 4100 ft
Su prošvaistėmis ne aukštis 4800 ft

METAR: LSGC 282350Z AUTO 04002KT 9999 BKN041 BKN048 06/01 Q1016

Laikas: 01:11 (00:11 UTC)

Prognozė

Ataskaita buvo paskelbta 9 valandos ir 46 minutes, ne 14:25 UTC
Prognozė galioja nuo 28 metu 15 UTC su 28 metu 24 UTC
Vėjas 7 kt iš Šiaurės/Šiaurės Rytų
Matomumas 10 km arba daugiau
Išsisklaidę debesys ne aukštis 4000 ft

TAF: LSGC 281425Z 2815/2824 03007KT 9999 SCT040

Orai ataskaitas ir orų prognozės (METAR, TAF).

turimą stotys yra geltonos ir raudonos taškus žemėlapyje.

Perkelti pele per norėdami pamatyti stoties vardą.

Tada spustelėkite, norėdami matyti oro stebėjimo ir prognozės.

Norėdami pakeisti žemėlapį: spustelėkite ant žalios mygtukų su juodo kryžiaus žemyn,; žalią mygtuką su brūkšneliu, jei norite nutolinti; arba žalių rodyklių gretimoms žemėlapius.


METAR-TAF: